Time;durP1;ratioP1;P1;durP2;ratioP2;P2;SDS_P1;SDS_P2;PMS_P1;PMS_P2;Temp;Humidity;BMP_temperature;BMP_pressure;BME280_temperature;BME280_humidity;BME280_pressure;Samples;Min_cycle;Max_cycle;Signal;HPM_P1;HPM_P2
2024/03/20 00:00:02;;;;;;;20.45;9.30;;;6.10;70.50;;;;;;4945739;28;20066;-75
2024/03/20 00:02:28;;;;;;;18.60;8.70;;;6.10;70.30;;;;;;4945795;28;20043;-75
2024/03/20 00:04:54;;;;;;;20.52;8.63;;;6.20;69.10;;;;;;4943522;28;20047;-74
2024/03/20 00:07:19;;;;;;;26.77;9.10;;;6.20;70.20;;;;;;4945690;29;20051;-75
2024/03/20 00:09:45;;;;;;;26.17;9.80;;;6.20;69.50;;;;;;4945253;28;20051;-75
2024/03/20 00:12:11;;;;;;;23.45;9.70;;;6.20;68.90;;;;;;4945594;28;20051;-75
2024/03/20 00:14:37;;;;;;;28.23;10.43;;;6.30;68.50;;;;;;4945151;28;20126;-75
2024/03/20 00:17:03;;;;;;;20.55;8.90;;;6.30;68.30;;;;;;4928292;28;20094;-75
2024/03/20 00:19:29;;;;;;;23.48;9.57;;;6.40;68.40;;;;;;4929148;29;20497;-75
2024/03/20 00:21:55;;;;;;;21.20;8.30;;;6.40;68.80;;;;;;4941362;28;20062;-75
2024/03/20 00:24:21;;;;;;;19.80;9.63;;;6.40;68.80;;;;;;4943577;28;20098;-75
2024/03/20 00:26:47;;;;;;;22.50;9.32;;;6.40;69.30;;;;;;4945092;28;20046;-74
2024/03/20 00:29:15;;;;;;;25.52;9.50;;;6.40;68.20;;;;;;4945212;28;20059;-75
2024/03/20 00:31:42;;;;;;;22.83;10.10;;;6.40;68.60;;;;;;4945459;28;20055;-75
2024/03/20 00:34:09;;;;;;;21.15;9.63;;;6.50;69.80;;;;;;4939731;28;20086;-75
2024/03/20 00:36:34;;;;;;;23.80;10.05;;;6.50;69.60;;;;;;4928851;29;20058;-75
2024/03/20 00:39:00;;;;;;;28.10;9.50;;;6.50;68.20;;;;;;4943893;28;20554;-75
2024/03/20 00:41:26;;;;;;;25.33;9.80;;;6.50;68.90;;;;;;4944531;28;20063;-75
2024/03/20 00:43:52;;;;;;;24.02;9.48;;;6.50;68.00;;;;;;4944408;28;20122;-75
2024/03/20 00:46:19;;;;;;;24.00;9.27;;;6.50;69.30;;;;;;4945152;28;20055;-75
2024/03/20 00:48:45;;;;;;;20.17;9.63;;;6.50;68.90;;;;;;4929581;29;20110;-75
2024/03/20 00:51:10;;;;;;;19.73;9.52;;;6.50;69.00;;;;;;4944740;28;20103;-75
2024/03/20 00:53:37;;;;;;;25.00;10.00;;;6.50;70.50;;;;;;4928891;29;20204;-75
2024/03/20 00:56:03;;;;;;;25.27;8.93;;;6.50;70.00;;;;;;4944322;28;20059;-75
2024/03/20 00:58:30;;;;;;;24.77;10.27;;;6.60;68.70;;;;;;4945263;28;20054;-75
2024/03/20 01:00:56;;;;;;;24.92;8.77;;;6.60;68.70;;;;;;4928158;29;20055;-75
2024/03/20 01:03:22;;;;;;;24.13;9.18;;;6.60;69.60;;;;;;4944578;28;20066;-75
2024/03/20 01:05:48;;;;;;;22.13;9.60;;;6.60;68.70;;;;;;4928635;28;20069;-75
2024/03/20 01:08:15;;;;;;;24.05;9.40;;;6.70;68.30;;;;;;4943988;28;20346;-75
2024/03/20 01:10:41;;;;;;;22.45;10.15;;;6.70;69.20;;;;;;4944787;28;20107;-75
2024/03/20 01:13:07;;;;;;;24.65;9.35;;;6.60;70.20;;;;;;4928319;29;20504;-75
2024/03/20 01:15:36;;;;;;;22.48;10.15;;;6.60;69.40;;;;;;4943960;28;20097;-75
2024/03/20 01:18:02;;;;;;;26.02;10.45;;;6.60;70.00;;;;;;4945309;29;20055;-75
2024/03/20 01:20:28;;;;;;;22.92;9.70;;;6.60;70.50;;;;;;4938680;29;20593;-75
2024/03/20 01:22:54;;;;;;;21.23;9.18;;;6.60;69.80;;;;;;4941658;28;20055;-75
2024/03/20 01:25:20;;;;;;;23.17;9.23;;;6.60;68.50;;;;;;4926950;28;20047;-69
2024/03/20 01:27:45;;;;;;;20.80;9.23;;;6.60;69.10;;;;;;4943361;28;20134;-69
2024/03/20 01:30:12;;;;;;;21.92;9.73;;;6.60;69.30;;;;;;4940891;28;20201;-69
2024/03/20 01:32:38;;;;;;;21.77;9.40;;;6.60;70.80;;;;;;4947072;28;20055;-69
2024/03/20 01:35:05;;;;;;;20.25;9.57;;;6.60;70.60;;;;;;4946512;28;20087;-69
2024/03/20 01:37:30;;;;;;;23.00;9.27;;;6.60;70.60;;;;;;4947150;28;20724;-69
2024/03/20 01:39:56;;;;;;;22.80;9.15;;;6.60;69.90;;;;;;4946879;28;20055;-69
2024/03/20 01:42:22;;;;;;;20.30;9.55;;;6.50;69.00;;;;;;4931124;29;20059;-69
2024/03/20 01:44:48;;;;;;;21.90;9.50;;;6.50;69.30;;;;;;4946766;28;20456;-69
2024/03/20 01:47:14;;;;;;;19.52;9.38;;;6.50;70.50;;;;;;4947427;28;20058;-69
2024/03/20 01:49:40;;;;;;;22.55;9.25;;;6.60;70.00;;;;;;4931643;29;20058;-69
2024/03/20 01:52:07;;;;;;;23.45;10.00;;;6.60;72.10;;;;;;4945859;28;20051;-69
2024/03/20 01:54:33;;;;;;;23.02;9.40;;;6.50;73.70;;;;;;4929494;29;20059;-69
2024/03/20 01:56:59;;;;;;;24.05;9.98;;;6.50;74.90;;;;;;4946044;28;20059;-69
2024/03/20 01:59:25;;;;;;;27.98;9.00;;;6.50;74.20;;;;;;4946709;28;20051;-69
2024/03/20 02:01:51;;;;;;;21.23;9.48;;;6.50;74.10;;;;;;4946264;28;20680;-69
2024/03/20 02:04:16;;;;;;;24.63;9.27;;;6.50;71.00;;;;;;4946022;28;20743;-69
2024/03/20 02:06:43;;;;;;;20.10;8.57;;;6.50;70.20;;;;;;4946812;29;20826;-69
2024/03/20 02:09:09;;;;;;;22.00;8.63;;;6.50;69.70;;;;;;4946046;28;20737;-69
2024/03/20 02:11:35;;;;;;;27.88;10.05;;;6.50;69.90;;;;;;4930014;28;20110;-69
2024/03/20 02:14:02;;;;;;;22.25;9.10;;;6.50;69.80;;;;;;4929827;29;20467;-69
2024/03/20 02:16:28;;;;;;;23.15;9.38;;;6.50;70.40;;;;;;4946103;28;20047;-69
2024/03/20 02:18:55;;;;;;;22.70;9.50;;;6.50;69.30;;;;;;4946970;28;20530;-69
2024/03/20 02:21:22;;;;;;;22.42;9.45;;;6.60;69.70;;;;;;4944921;28;20515;-69
2024/03/20 02:23:50;;;;;;;20.85;8.75;;;6.60;69.50;;;;;;4944808;28;20511;-69
2024/03/20 02:26:16;;;;;;;23.85;9.95;;;6.60;69.30;;;;;;4937733;28;20476;-69
2024/03/20 02:28:43;;;;;;;19.08;8.90;;;6.60;71.20;;;;;;4946219;28;20484;-69
2024/03/20 02:31:11;;;;;;;21.65;9.10;;;6.60;69.40;;;;;;4929646;29;20043;-69
2024/03/20 02:33:38;;;;;;;20.08;9.02;;;6.60;70.70;;;;;;4946177;28;20774;-69
2024/03/20 02:36:05;;;;;;;19.83;8.95;;;6.60;69.30;;;;;;4945971;28;20059;-69
2024/03/20 02:38:39;;;;;;;18.75;8.43;;;6.70;69.60;;;;;;4943314;28;20063;-69
2024/03/20 02:41:06;;;;;;;21.25;9.05;;;6.70;70.20;;;;;;4945578;28;20119;-69
2024/03/20 02:43:33;;;;;;;21.83;9.15;;;6.70;69.70;;;;;;4943514;28;20056;-69
2024/03/20 02:45:59;;;;;;;23.42;9.35;;;6.70;69.50;;;;;;4945691;28;20632;-69
2024/03/20 02:48:25;;;;;;;22.80;9.38;;;6.70;68.20;;;;;;4947294;28;20415;-69
2024/03/20 02:50:51;;;;;;;22.80;8.48;;;6.70;69.10;;;;;;4944952;28;20142;-69
2024/03/20 02:53:16;;;;;;;17.80;8.27;;;6.70;69.30;;;;;;4945741;28;20097;-69
2024/03/20 02:55:44;;;;;;;24.67;9.20;;;6.70;67.80;;;;;;4946161;28;20063;-69
2024/03/20 02:58:10;;;;;;;22.48;8.90;;;6.70;67.80;;;;;;4942706;28;20521;-69
2024/03/20 03:00:36;;;;;;;22.02;8.65;;;6.70;68.40;;;;;;4942752;28;20152;-69
2024/03/20 03:03:02;;;;;;;20.92;9.00;;;6.70;68.20;;;;;;4929573;29;20370;-69
2024/03/20 03:05:29;;;;;;;21.00;9.45;;;6.70;69.10;;;;;;4944828;28;20110;-69
2024/03/20 03:07:55;;;;;;;19.08;9.25;;;6.70;69.00;;;;;;4944958;28;20059;-69
2024/03/20 03:10:22;;;;;;;20.98;8.65;;;6.70;69.80;;;;;;4942781;28;20058;-69
2024/03/20 03:12:49;;;;;;;21.38;9.18;;;6.70;69.80;;;;;;4926658;29;20047;-69
2024/03/20 03:15:15;;;;;;;22.73;9.73;;;6.70;70.20;;;;;;4946490;29;20055;-69
2024/03/20 03:17:42;;;;;;;20.52;8.55;;;6.70;69.30;;;;;;4944645;28;20468;-69
2024/03/20 03:20:14;;;;;;;19.70;8.25;;;6.70;69.00;;;;;;4929784;29;20047;-69
2024/03/20 03:22:42;;;;;;;22.25;8.32;;;6.70;70.10;;;;;;4929977;29;20555;-69
2024/03/20 03:25:08;;;;;;;21.08;8.30;;;6.70;71.50;;;;;;4936644;28;20396;-69
2024/03/20 03:27:35;;;;;;;26.80;9.57;;;6.60;72.80;;;;;;4923759;29;20052;-69
2024/03/20 03:30:05;;;;;;;23.92;9.52;;;6.60;70.10;;;;;;4943902;28;20876;-69
2024/03/20 03:32:31;;;;;;;19.45;8.57;;;6.60;70.20;;;;;;4943511;28;20051;-69
2024/03/20 03:34:57;;;;;;;21.98;8.75;;;6.60;70.70;;;;;;4929477;29;20106;-69
2024/03/20 03:37:23;;;;;;;17.42;8.63;;;6.60;70.90;;;;;;4928687;29;20062;-69
2024/03/20 03:39:52;;;;;;;20.58;8.55;;;6.60;70.20;;;;;;4944690;28;20062;-69
2024/03/20 03:42:19;;;;;;;21.10;9.13;;;6.60;69.80;;;;;;4945886;29;20102;-69
2024/03/20 03:44:45;;;;;;;19.17;8.15;;;6.60;70.30;;;;;;4945291;28;20047;-69
2024/03/20 03:47:11;;;;;;;20.88;8.95;;;6.60;69.70;;;;;;4945007;29;20131;-68
2024/03/20 03:49:37;;;;;;;17.13;8.55;;;6.60;69.10;;;;;;4944237;28;20047;-69
2024/03/20 03:52:05;;;;;;;29.40;7.85;;;6.60;69.30;;;;;;4940445;29;20115;-69
2024/03/20 03:54:31;;;;;;;18.80;8.52;;;6.60;69.40;;;;;;4928063;28;20070;-68
2024/03/20 03:56:58;;;;;;;24.25;9.15;;;6.60;69.30;;;;;;4944535;29;20882;-68
2024/03/20 03:59:23;;;;;;;16.98;8.15;;;6.60;70.40;;;;;;4938624;28;20070;-68
2024/03/20 04:01:49;;;;;;;17.10;8.20;;;6.60;71.70;;;;;;4943496;28;20051;-68
2024/03/20 04:04:15;;;;;;;23.63;8.70;;;6.60;70.70;;;;;;4944233;28;20492;-68
2024/03/20 04:06:44;;;;;;;20.92;9.00;;;6.60;70.50;;;;;;4943587;28;20047;-68
2024/03/20 04:09:10;;;;;;;22.52;9.20;;;6.60;71.40;;;;;;4944156;28;20583;-68
2024/03/20 04:11:39;;;;;;;26.27;9.02;;;6.60;73.20;;;;;;4943630;28;20146;-68
2024/03/20 04:14:07;;;;;;;28.15;9.07;;;6.50;72.80;;;;;;4942577;29;20059;-69
2024/03/20 04:16:34;;;;;;;18.75;9.82;;;6.50;73.20;;;;;;4944571;28;20055;-69
2024/03/20 04:19:00;;;;;;;25.27;9.18;;;6.40;73.50;;;;;;4943887;29;20507;-69
2024/03/20 04:21:26;;;;;;;21.15;9.10;;;6.30;73.90;;;;;;4928012;29;20102;-68
2024/03/20 04:23:52;;;;;;;19.05;8.57;;;6.20;73.40;;;;;;4943841;29;20471;-68
2024/03/20 04:26:19;;;;;;;19.95;8.80;;;6.10;74.60;;;;;;4944561;28;20054;-68
2024/03/20 04:28:46;;;;;;;19.27;7.88;;;6.10;73.40;;;;;;4943068;28;20047;-68
2024/03/20 04:31:16;;;;;;;17.55;8.00;;;6.00;73.90;;;;;;4927537;29;20129;-68
2024/03/20 04:33:42;;;;;;;21.35;8.68;;;5.90;74.00;;;;;;4944794;28;20066;-68
2024/03/20 04:36:10;;;;;;;27.40;9.05;;;5.90;73.30;;;;;;4943290;28;20183;-68
2024/03/20 04:38:37;;;;;;;21.55;8.40;;;5.90;73.30;;;;;;4928633;29;20063;-68
2024/03/20 04:41:08;;;;;;;22.75;9.38;;;5.90;74.10;;;;;;4942820;28;20055;-68
2024/03/20 04:43:34;;;;;;;22.70;8.85;;;6.00;73.20;;;;;;4926980;29;20063;-68
2024/03/20 04:46:00;;;;;;;19.13;8.23;;;6.00;73.50;;;;;;4928095;29;20085;-68
2024/03/20 04:48:26;;;;;;;20.85;8.60;;;6.00;72.80;;;;;;4928197;29;20055;-68
2024/03/20 04:50:53;;;;;;;26.52;8.55;;;6.10;73.90;;;;;;4940490;28;20047;-68
2024/03/20 04:53:19;;;;;;;26.08;9.23;;;6.10;73.90;;;;;;4927293;28;20055;-68
2024/03/20 04:55:46;;;;;;;19.92;8.90;;;6.10;73.10;;;;;;4942876;28;20066;-68
2024/03/20 04:58:12;;;;;;;19.58;9.48;;;6.10;73.30;;;;;;4943041;29;20063;-68
2024/03/20 05:00:37;;;;;;;24.48;9.35;;;6.10;72.50;;;;;;4927933;29;20106;-68
2024/03/20 05:03:04;;;;;;;17.05;7.75;;;6.10;73.40;;;;;;4943018;28;20281;-68
2024/03/20 05:05:30;;;;;;;23.90;8.80;;;6.10;73.40;;;;;;4944928;28;20047;-68
2024/03/20 05:07:56;;;;;;;19.33;9.20;;;6.10;73.10;;;;;;4947392;28;20058;-68
2024/03/20 05:10:21;;;;;;;18.50;9.00;;;6.20;73.70;;;;;;4930843;28;20055;-68
2024/03/20 05:12:47;;;;;;;16.90;8.15;;;6.20;74.60;;;;;;4946922;28;20055;-68
2024/03/20 05:15:13;;;;;;;21.95;8.68;;;6.20;74.60;;;;;;4929475;29;20066;-68
2024/03/20 05:17:39;;;;;;;19.65;8.27;;;6.10;76.40;;;;;;4946749;29;20512;-68
2024/03/20 05:20:05;;;;;;;29.52;8.85;;;6.10;77.00;;;;;;4947588;29;20055;-68
2024/03/20 05:22:31;;;;;;;19.80;8.98;;;6.10;75.70;;;;;;4945580;29;20508;-68
2024/03/20 05:24:57;;;;;;;19.05;7.32;;;6.10;76.40;;;;;;4931643;29;20058;-68
2024/03/20 05:27:23;;;;;;;20.27;8.43;;;6.10;77.80;;;;;;4947788;28;20097;-68
2024/03/20 05:29:49;;;;;;;20.05;9.20;;;6.00;77.70;;;;;;4947263;28;20528;-67
2024/03/20 05:32:15;;;;;;;20.60;8.60;;;6.00;77.10;;;;;;4931472;29;20066;-68
2024/03/20 05:34:41;;;;;;;28.05;9.63;;;6.00;77.70;;;;;;4945772;28;20055;-67
2024/03/20 05:37:06;;;;;;;20.33;9.13;;;6.00;78.70;;;;;;4947307;29;20137;-67
2024/03/20 05:39:33;;;;;;;29.23;8.32;;;5.90;78.00;;;;;;4946772;28;20158;-68
2024/03/20 05:41:59;;;;;;;35.67;10.15;;;5.90;78.30;;;;;;4930106;29;20059;-68
2024/03/20 05:44:26;;;;;;;20.98;9.02;;;5.90;79.30;;;;;;4931490;29;20093;-67
2024/03/20 05:46:52;;;;;;;18.92;9.15;;;5.80;78.90;;;;;;4926061;28;20059;-70
2024/03/20 05:49:21;;;;;;;26.35;8.95;;;5.80;79.00;;;;;;4946523;29;20104;-70
2024/03/20 05:51:48;;;;;;;30.63;9.35;;;5.80;78.50;;;;;;4946982;28;20055;-71
2024/03/20 05:54:16;;;;;;;21.50;8.43;;;5.90;78.90;;;;;;4922867;29;20051;-71
2024/03/20 05:56:41;;;;;;;21.80;9.13;;;5.90;77.60;;;;;;4931683;29;20058;-71
2024/03/20 05:59:08;;;;;;;22.70;9.20;;;5.90;79.80;;;;;;4927178;28;20093;-69
2024/03/20 06:01:34;;;;;;;27.73;9.82;;;6.00;82.10;;;;;;4930151;29;20059;-70
2024/03/20 06:04:00;;;;;;;25.02;9.48;;;6.00;80.60;;;;;;4946789;28;20142;-70
2024/03/20 06:06:28;;;;;;;20.40;9.20;;;6.00;80.80;;;;;;4942712;28;20059;-70
2024/03/20 06:08:54;;;;;;;19.30;9.10;;;6.00;82.90;;;;;;4945812;28;20791;-70
2024/03/20 06:11:39;;;;;;;29.90;9.60;;;6.10;78.90;;;;;;4945870;28;20050;-70
2024/03/20 06:14:05;;;;;;;20.30;8.73;;;6.10;78.70;;;;;;4947147;28;20063;-70
2024/03/20 06:16:31;;;;;;;17.60;8.32;;;6.20;78.90;;;;;;4944613;28;20113;-75
2024/03/20 06:18:57;;;;;;;22.75;9.32;;;6.20;78.80;;;;;;4943291;28;20062;-71
2024/03/20 06:21:23;;;;;;;19.50;9.02;;;6.30;80.30;;;;;;4946558;28;20055;-71
2024/03/20 06:23:49;;;;;;;23.00;9.13;;;6.30;80.40;;;;;;4930301;29;20507;-70
2024/03/20 06:26:15;;;;;;;24.20;9.07;;;6.30;80.70;;;;;;4945988;28;20057;-72
2024/03/20 06:28:41;;;;;;;22.95;9.52;;;6.40;77.50;;;;;;4945779;28;20161;-70
2024/03/20 06:31:07;;;;;;;16.40;8.88;;;6.40;79.00;;;;;;4929772;29;20055;-72
2024/03/20 06:33:34;;;;;;;19.00;8.95;;;6.50;79.30;;;;;;4929107;29;20060;-71
2024/03/20 06:36:00;;;;;;;22.40;8.63;;;6.50;78.90;;;;;;4944996;28;20067;-71
2024/03/20 06:38:27;;;;;;;20.58;8.90;;;6.50;77.50;;;;;;4940943;28;20055;-71
2024/03/20 06:40:53;;;;;;;24.48;9.80;;;6.60;77.80;;;;;;4927482;28;20062;-71
2024/03/20 06:43:19;;;;;;;21.23;9.07;;;6.70;77.80;;;;;;4946650;28;20804;-71
2024/03/20 06:45:47;;;;;;;23.98;8.88;;;6.70;79.00;;;;;;4946225;28;20055;-71
2024/03/20 06:48:21;;;;;;;20.08;9.23;;;6.70;78.60;;;;;;4929941;28;20070;-71
2024/03/20 06:50:48;;;;;;;25.88;9.23;;;6.80;76.40;;;;;;4945643;29;20792;-71
2024/03/20 06:53:14;;;;;;;22.83;9.23;;;6.80;76.70;;;;;;4945036;28;20051;-70
2024/03/20 06:55:43;;;;;;;23.75;9.35;;;6.90;76.60;;;;;;4946755;29;20078;-71
2024/03/20 06:58:11;;;;;;;22.40;8.93;;;6.90;78.60;;;;;;4943636;28;20051;-71
2024/03/20 07:00:37;;;;;;;22.05;9.25;;;6.90;76.20;;;;;;4945045;28;20066;-71
2024/03/20 07:03:04;;;;;;;20.90;9.75;;;7.00;77.70;;;;;;4944759;28;20081;-70
2024/03/20 07:05:30;;;;;;;28.52;9.88;;;7.00;78.70;;;;;;4945280;28;20095;-70
2024/03/20 07:07:56;;;;;;;20.27;9.68;;;7.10;80.20;;;;;;4945047;28;20463;-70
2024/03/20 07:10:21;;;;;;;23.98;10.10;;;7.10;82.10;;;;;;4941848;28;20067;-70
2024/03/20 07:12:47;;;;;;;26.10;10.30;;;7.10;81.60;;;;;;4927421;28;20133;-70
2024/03/20 07:15:13;;;;;;;22.85;10.60;;;7.10;85.60;;;;;;4926099;29;20134;-70
2024/03/20 07:17:40;;;;;;;21.67;9.55;;;7.00;82.60;;;;;;4942589;29;20059;-70
2024/03/20 07:20:09;;;;;;;22.48;9.90;;;7.00;94.60;;;;;;4942869;29;20058;-70
2024/03/20 07:22:38;;;;;;;23.63;9.55;;;7.00;94.60;;;;;;4923915;29;20670;-70
2024/03/20 07:25:07;;;;;;;21.02;9.57;;;7.00;95.50;;;;;;4924717;29;20059;-70
2024/03/20 07:27:34;;;;;;;27.83;10.65;;;6.90;93.80;;;;;;4941555;28;20055;-70
2024/03/20 07:30:03;;;;;;;20.48;9.48;;;6.90;99.60;;;;;;4944600;28;20760;-70
2024/03/20 07:32:29;;;;;;;28.05;9.98;;;6.90;94.90;;;;;;4944273;28;20043;-70
2024/03/20 07:34:56;;;;;;;21.08;10.25;;;6.90;98.40;;;;;;4944212;28;20295;-70
2024/03/20 07:37:23;;;;;;;20.55;9.50;;;6.90;100.00;;;;;;4944602;28;20756;-70
2024/03/20 07:39:49;;;;;;;22.65;11.00;;;6.80;100.00;;;;;;4943709;28;20092;-70
2024/03/20 07:42:14;;;;;;;23.98;10.05;;;6.80;100.00;;;;;;4944453;28;20733;-70
2024/03/20 07:44:40;;;;;;;25.25;10.80;;;6.70;100.00;;;;;;4943301;28;20402;-70
2024/03/20 07:47:06;;;;;;;25.90;11.90;;;6.70;100.00;;;;;;4929149;29;20113;-70
2024/03/20 07:49:32;;;;;;;25.40;11.65;;;6.70;100.00;;;;;;4943202;28;20134;-71
2024/03/20 07:51:58;;;;;;;25.70;11.45;;;6.70;100.00;;;;;;4944843;29;20062;-70
2024/03/20 07:54:24;;;;;;;24.90;11.13;;;6.70;100.00;;;;;;4944606;28;20062;-70
2024/03/20 07:56:54;;;;;;;32.35;12.60;;;6.70;100.00;;;;;;4945364;28;20059;-70
2024/03/20 07:59:21;;;;;;;29.42;12.77;;;6.80;100.00;;;;;;4940871;28;20054;-70
2024/03/20 08:01:47;;;;;;;31.23;12.48;;;6.80;100.00;;;;;;4928357;29;20055;-70
2024/03/20 08:04:13;;;;;;;26.48;11.77;;;6.80;100.00;;;;;;4943030;28;20085;-70
2024/03/20 08:06:40;;;;;;;31.30;12.20;;;6.80;100.00;;;;;;4927215;28;20059;-71
2024/03/20 08:09:06;;;;;;;22.50;11.10;;;6.80;100.00;;;;;;4927227;28;20054;-70
2024/03/20 08:11:33;;;;;;;26.40;11.32;;;6.80;100.00;;;;;;4927892;28;20063;-70
2024/03/20 08:13:59;;;;;;;31.73;11.70;;;6.80;100.00;;;;;;4925788;29;20055;-70
2024/03/20 08:16:27;;;;;;;30.75;11.43;;;6.80;100.00;;;;;;4928614;29;20047;-70
2024/03/20 08:18:54;;;;;;;22.83;10.25;;;6.90;100.00;;;;;;4927560;29;20872;-70
2024/03/20 08:21:20;;;;;;;27.33;11.50;;;6.90;100.00;;;;;;4942583;28;20094;-70
2024/03/20 08:23:45;;;;;;;26.85;10.95;;;6.90;100.00;;;;;;4943679;28;20070;-70
2024/03/20 08:26:11;;;;;;;25.48;10.30;;;6.80;100.00;;;;;;4942313;28;20145;-70
2024/03/20 08:28:37;;;;;;;25.00;10.50;;;6.80;100.00;;;;;;4906539;28;1099876;-70
2024/03/20 08:31:08;;;;;;;23.77;12.07;;;6.80;100.00;;;;;;4944403;28;20052;-70
2024/03/20 08:33:34;;;;;;;28.17;11.55;;;6.90;100.00;;;;;;4944439;28;20062;-70
2024/03/20 08:36:00;;;;;;;24.73;11.13;;;6.90;100.00;;;;;;4944432;28;20055;-71
2024/03/20 08:38:27;;;;;;;30.92;12.45;;;6.90;100.00;;;;;;4944678;28;20093;-70
2024/03/20 08:40:53;;;;;;;30.45;12.00;;;7.00;100.00;;;;;;4929645;28;20062;-70
2024/03/20 08:43:22;;;;;;;28.08;12.05;;;7.00;100.00;;;;;;4929329;28;20055;-71
2024/03/20 08:45:50;;;;;;;26.58;11.70;;;6.80;100.00;;;;;;4932677;29;20058;-70
2024/03/20 08:48:16;;;;;;;27.48;10.98;;;6.80;100.00;;;;;;4948961;28;20059;-70
2024/03/20 08:50:43;;;;;;;26.13;12.75;;;6.80;100.00;;;;;;4948640;29;20062;-70
2024/03/20 08:53:12;;;;;;;27.05;12.82;;;6.70;100.00;;;;;;4930955;29;20055;-70
2024/03/20 08:55:40;;;;;;;29.83;12.63;;;6.70;100.00;;;;;;4942194;28;20063;-70
2024/03/20 08:58:09;;;;;;;27.20;12.32;;;6.70;100.00;;;;;;4930212;29;20051;-70
2024/03/20 09:00:35;;;;;;;31.13;12.80;;;6.70;100.00;;;;;;4940608;29;20420;-70
2024/03/20 09:03:02;;;;;;;27.45;12.65;;;6.60;100.00;;;;;;4945891;29;20058;-70
2024/03/20 09:05:28;;;;;;;35.15;13.50;;;6.60;100.00;;;;;;4945261;28;20043;-70
2024/03/20 09:07:54;;;;;;;31.95;13.50;;;6.50;100.00;;;;;;4946794;28;20059;-70
2024/03/20 09:10:21;;;;;;;30.30;11.73;;;6.50;100.00;;;;;;4937897;29;20563;-70
2024/03/20 09:12:47;;;;;;;32.85;13.02;;;6.40;100.00;;;;;;4927218;29;20055;-70
2024/03/20 09:15:13;;;;;;;30.38;12.98;;;6.40;100.00;;;;;;4947211;28;20751;-70
2024/03/20 09:17:40;;;;;;;33.45;13.35;;;6.30;100.00;;;;;;4947714;29;20071;-70
2024/03/20 09:20:15;;;;;;;26.67;12.05;;;6.30;100.00;;;;;;4947434;28;20059;-70
2024/03/20 09:22:46;;;;;;;;;;;6.30;100.00;;;;;;4928054;29;20059;-70
2024/03/20 09:25:13;;;;;;;33.50;13.55;;;6.40;100.00;;;;;;4943018;28;19926;-70
2024/03/20 09:27:39;;;;;;;34.88;14.63;;;6.40;100.00;;;;;;4947978;29;20059;-70
2024/03/20 09:30:06;;;;;;;37.20;14.13;;;6.50;100.00;;;;;;4931629;29;20055;-70
2024/03/20 09:32:32;;;;;;;34.97;14.30;;;6.70;100.00;;;;;;4946798;28;20063;-70
2024/03/20 09:34:58;;;;;;;34.30;13.45;;;6.70;100.00;;;;;;4946831;28;20051;-70
2024/03/20 09:37:29;;;;;;;30.17;13.30;;;6.70;100.00;;;;;;4930957;29;20070;-70
2024/03/20 09:39:59;;;;;;;32.45;14.00;;;6.70;100.00;;;;;;4945577;28;20055;-70
2024/03/20 09:42:25;;;;;;;29.38;13.57;;;6.70;100.00;;;;;;4946097;28;20492;-70
2024/03/20 09:44:51;;;;;;;33.70;14.88;;;6.70;100.00;;;;;;4944239;28;20098;-70
2024/03/20 09:47:17;;;;;;;33.92;14.02;;;6.80;100.00;;;;;;4944671;28;20110;-70
2024/03/20 09:49:47;;;;;;;33.45;14.18;;;6.80;100.00;;;;;;4930918;29;20055;-70
2024/03/20 09:52:13;;;;;;;35.75;14.32;;;6.80;100.00;;;;;;4944963;28;20136;-70
2024/03/20 09:54:40;;;;;;;35.50;13.77;;;6.90;100.00;;;;;;4946007;28;20075;-70
2024/03/20 09:57:13;;;;;;;30.67;13.50;;;7.00;100.00;;;;;;4947967;29;20676;-71
2024/03/20 09:59:39;;;;;;;36.40;14.93;;;7.00;100.00;;;;;;4946696;28;20130;-70
2024/03/20 10:02:08;;;;;;;40.67;15.45;;;7.00;100.00;;;;;;4946427;28;20047;-70
2024/03/20 10:04:36;;;;;;;34.60;15.65;;;7.00;100.00;;;;;;4946602;28;20051;-71
2024/03/20 10:07:29;;;;;;;39.80;14.98;;;7.10;100.00;;;;;;4947336;29;20070;-71
2024/03/20 10:09:57;;;;;;;35.30;15.52;;;7.20;100.00;;;;;;4946870;29;20050;-71
2024/03/20 10:12:24;;;;;;;34.10;15.23;;;7.30;100.00;;;;;;4932015;29;20059;-71
2024/03/20 10:14:51;;;;;;;33.90;15.35;;;7.30;100.00;;;;;;4947661;28;20051;-70
2024/03/20 10:17:17;;;;;;;32.42;15.13;;;7.30;100.00;;;;;;4945641;28;20149;-71
2024/03/20 10:19:44;;;;;;;37.25;16.27;;;7.30;100.00;;;;;;4947235;28;20055;-71
2024/03/20 10:22:11;;;;;;;34.20;15.52;;;7.30;100.00;;;;;;4929190;29;20062;-71
2024/03/20 10:24:43;;;;;;;40.45;16.48;;;7.40;100.00;;;;;;4946323;28;20448;-71
2024/03/20 10:27:12;;;;;;;34.60;15.52;;;7.50;100.00;;;;;;4939404;28;20551;-71
2024/03/20 10:29:39;;;;;;;40.00;16.88;;;7.60;100.00;;;;;;4948992;28;20066;-71
2024/03/20 10:32:06;;;;;;;36.20;16.63;;;7.70;100.00;;;;;;4946597;28;20066;-71
2024/03/20 10:34:33;;;;;;;36.88;16.92;;;7.80;100.00;;;;;;4946551;28;20043;-71
2024/03/20 10:36:59;;;;;;;37.20;16.20;;;7.80;100.00;;;;;;4945795;28;20062;-71
2024/03/20 10:39:27;;;;;;;36.17;16.50;;;7.80;100.00;;;;;;4947092;28;20063;-71
2024/03/20 10:41:56;;;;;;;39.80;17.90;;;7.90;100.00;;;;;;4946117;28;20080;-71
2024/03/20 10:44:26;;;;;;;40.40;17.02;;;7.80;100.00;;;;;;4941665;28;20059;-71
2024/03/20 10:46:54;;;;;;;39.97;16.85;;;7.80;100.00;;;;;;4929681;29;20066;-71
2024/03/20 10:49:22;;;;;;;40.30;18.40;;;7.80;100.00;;;;;;4938847;28;20048;-72
2024/03/20 10:51:50;;;;;;;36.35;16.05;;;7.70;100.00;;;;;;4945934;28;20145;-72
2024/03/20 10:54:17;;;;;;;38.05;16.73;;;7.70;100.00;;;;;;4944045;28;20058;-71
2024/03/20 10:56:44;;;;;;;40.58;17.55;;;7.60;100.00;;;;;;4945395;28;20130;-71
2024/03/20 10:59:31;;;;;;;36.13;16.40;;;7.60;100.00;;;;;;4927138;28;20412;-71
2024/03/20 11:02:08;;;;;;;38.47;16.35;;;7.60;100.00;;;;;;4942391;28;20749;-71
2024/03/20 11:04:35;;;;;;;39.35;16.45;;;7.60;100.00;;;;;;4944658;28;20063;-71
2024/03/20 11:07:21;;;;;;;44.53;16.98;;;7.70;100.00;;;;;;4929409;29;20512;-71
2024/03/20 11:09:51;;;;;;;39.53;16.23;;;7.80;100.00;;;;;;4945414;28;20130;-71
2024/03/20 11:12:29;;;;;;;33.25;15.93;;;7.80;100.00;;;;;;4945859;28;20055;-71
2024/03/20 11:15:02;;;;;;;39.92;17.70;;;7.90;100.00;;;;;;4941926;29;20065;-71
2024/03/20 11:17:32;;;;;;;36.55;16.42;;;7.90;100.00;;;;;;4944647;28;20062;-71
2024/03/20 11:19:58;;;;;;;31.98;14.82;;;7.90;100.00;;;;;;4943715;28;20043;-72
2024/03/20 11:22:24;;;;;;;36.08;17.80;;;7.90;100.00;;;;;;4929842;29;20118;-71
2024/03/20 11:24:54;;;;;;;37.15;16.15;;;8.00;100.00;;;;;;4944120;28;20058;-72
2024/03/20 11:27:25;;;;;;;35.50;15.43;;;8.00;100.00;;;;;;4943353;28;20917;-72
2024/03/20 11:29:51;;;;;;;33.35;15.25;;;8.10;100.00;;;;;;4929186;29;20055;-72
2024/03/20 11:32:21;;;;;;;44.05;18.02;;;8.20;100.00;;;;;;4945954;28;20074;-72
2024/03/20 11:34:47;;;;;;;40.42;17.42;;;8.30;100.00;;;;;;4928719;29;20064;-72
2024/03/20 11:37:17;;;;;;;35.08;16.77;;;8.50;100.00;;;;;;4944411;29;20055;-72
2024/03/20 11:39:44;;;;;;;39.30;16.90;;;8.60;100.00;;;;;;4942730;28;20059;-71
2024/03/20 11:42:12;;;;;;;39.78;17.73;;;8.80;100.00;;;;;;4926218;29;20062;-72
2024/03/20 11:44:39;;;;;;;35.80;17.17;;;9.00;100.00;;;;;;4944084;28;20058;-71
2024/03/20 11:47:11;;;;;;;36.83;16.67;;;9.20;100.00;;;;;;4944622;28;20523;-72
2024/03/20 11:49:41;;;;;;;36.17;17.38;;;9.40;100.00;;;;;;4944269;28;20649;-70
2024/03/20 11:52:14;;;;;;;33.00;16.15;;;9.70;100.00;;;;;;4943764;28;20051;-70
2024/03/20 11:54:41;;;;;;;36.03;17.05;;;10.20;100.00;;;;;;4944120;28;20063;-70
2024/03/20 11:57:11;;;;;;;30.88;15.77;;;10.60;100.00;;;;;;4944547;28;20408;-71
2024/03/20 11:59:37;;;;;;;33.15;16.30;;;10.80;100.00;;;;;;4921135;29;20062;-71
2024/03/20 12:02:04;;;;;;;33.35;16.38;;;10.80;100.00;;;;;;4945093;28;20424;-71
2024/03/20 12:04:34;;;;;;;37.88;16.85;;;10.90;100.00;;;;;;4944055;28;20058;-71
2024/03/20 12:07:00;;;;;;;34.15;16.95;;;11.10;100.00;;;;;;4940107;28;20423;-71
2024/03/20 12:09:26;;;;;;;36.53;16.38;;;11.60;100.00;;;;;;4944248;28;20831;-71
2024/03/20 12:11:52;;;;;;;33.42;16.10;;;12.40;100.00;;;;;;4943846;28;20047;-71
2024/03/20 12:14:18;;;;;;;36.70;19.70;;;12.70;100.00;;;;;;4943531;28;20082;-71
2024/03/20 12:16:44;;;;;;;34.92;15.07;;;12.90;100.00;;;;;;4942994;28;20091;-71
2024/03/20 12:19:10;;;;;;;33.00;16.05;;;13.20;100.00;;;;;;4944622;28;20196;-71
2024/03/20 12:21:36;;;;;;;31.67;15.57;;;13.00;100.00;;;;;;4944209;28;20108;-71
2024/03/20 12:24:01;;;;;;;39.25;15.52;;;13.10;100.00;;;;;;4943625;28;20061;-71
2024/03/20 12:26:29;;;;;;;32.95;15.45;;;13.20;100.00;;;;;;4941190;28;20100;-71
2024/03/20 12:28:55;;;;;;;29.23;14.38;;;13.40;100.00;;;;;;4943052;28;20059;-71
2024/03/20 12:31:22;;;;;;;29.95;15.18;;;13.60;100.00;;;;;;4943182;28;20055;-72
2024/03/20 12:33:53;;;;;;;29.85;14.65;;;14.70;100.00;;;;;;4944066;28;20616;-72
2024/03/20 12:36:21;;;;;;;31.33;14.52;;;14.80;100.00;;;;;;4944395;28;20066;-72